createdAt,value
2023-02-15T00:00:00.844Z,-2.44
2023-02-15T00:16:03.501Z,-2.61
2023-02-15T00:31:00.300Z,-2.78
2023-02-15T00:46:02.580Z,-2.94
2023-02-15T01:00:04.201Z,-3
2023-02-15T01:16:01.880Z,-3
2023-02-15T01:31:03.712Z,-3.11
2023-02-15T01:46:01.171Z,-3.22
2023-02-15T02:00:02.920Z,-3.33
2023-02-15T02:16:04.813Z,-3.56
2023-02-15T02:31:01.859Z,-3.67
2023-02-15T02:46:04.000Z,-3.72
2023-02-15T03:00:11.460Z,-3.78
2023-02-15T03:16:03.434Z,-3.89
2023-02-15T03:31:00.390Z,-4.06
2023-02-15T03:46:02.552Z,-4.17
2023-02-15T04:00:04.424Z,-4.28
2023-02-15T04:16:01.982Z,-4.44
2023-02-15T04:31:09.892Z,-4.56
2023-02-15T04:46:01.364Z,-4.44
2023-02-15T05:00:02.759Z,-4.5
2023-02-15T05:16:00.667Z,-4.61
2023-02-15T05:31:02.388Z,-4.72
2023-02-15T05:46:04.373Z,-4.89
2023-02-15T06:00:01.060Z,-4.89
2023-02-15T06:16:03.509Z,-4.89
2023-02-15T06:31:00.487Z,-4.94
2023-02-15T06:46:02.470Z,-4.94
2023-02-15T07:00:03.763Z,-4.61
2023-02-15T07:16:01.404Z,-4.28
2023-02-15T07:31:03.056Z,-4.06
2023-02-15T07:46:05.814Z,-3.06
2023-02-15T08:00:02.127Z,-1.94
2023-02-15T08:16:04.627Z,-0.89
2023-02-15T08:31:01.679Z,0.06
2023-02-15T08:46:03.627Z,1.06
2023-02-15T09:00:00.341Z,1.78
2023-02-15T09:16:02.585Z,2.5
2023-02-15T09:31:05.286Z,3.17
2023-02-15T09:46:01.898Z,3.83
2023-02-15T10:00:03.793Z,4.22
2023-02-15T10:16:00.930Z,5.11
2023-02-15T10:31:00.335Z,5.56
2023-02-15T10:46:04.771Z,5.5
2023-02-15T11:00:01.685Z,6.06
2023-02-15T11:16:04.003Z,6.33
2023-02-15T11:31:01.369Z,7.17
2023-02-15T11:46:03.045Z,7.89
2023-02-15T12:00:05.057Z,8
2023-02-15T12:16:02.217Z,8.33
2023-02-15T12:31:04.855Z,8.5
2023-02-15T12:46:01.600Z,8.83
2023-02-15T13:00:03.305Z,9.06
2023-02-15T13:16:00.544Z,9.33
2023-02-15T13:31:02.814Z,9.33
2023-02-15T13:46:05.378Z,9.67
2023-02-15T14:00:01.607Z,9.83
2023-02-15T14:16:03.989Z,9.78
2023-02-15T14:31:01.195Z,9.94
2023-02-15T14:46:03.154Z,10
2023-02-15T15:00:00.138Z,10.06
2023-02-15T15:16:02.597Z,9.94
2023-02-15T15:31:04.435Z,9.78
2023-02-15T15:46:01.902Z,9.33
2023-02-15T16:00:03.602Z,8.94
2023-02-15T16:16:01.047Z,8.33
2023-02-15T16:31:02.930Z,7.78
2023-02-15T16:46:04.747Z,6.83
2023-02-15T17:00:01.629Z,6
2023-02-15T17:16:04.463Z,5
2023-02-15T17:31:00.840Z,4.22
2023-02-15T17:46:32.545Z,3.5
2023-02-15T18:00:04.675Z,3
2023-02-15T18:16:02.048Z,2.44
2023-02-15T18:31:04.535Z,2
2023-02-15T18:46:01.360Z,1.56
2023-02-15T19:00:03.357Z,1.17
2023-02-15T19:16:00.778Z,0.67
2023-02-15T19:31:03.087Z,0.39
2023-02-15T19:46:00.314Z,0.17
2023-02-15T20:00:15.846Z,-0.06
2023-02-15T20:16:04.773Z,-0.22
2023-02-15T20:31:02.313Z,-0.33
2023-02-15T20:46:04.413Z,-0.5
2023-02-15T21:00:01.095Z,-0.61
2023-02-15T21:16:03.569Z,-0.78
2023-02-15T21:31:00.823Z,-0.94
2023-02-15T21:46:02.993Z,-1.11
2023-02-15T22:00:04.793Z,-1.22
2023-02-15T22:16:02.145Z,-1.39
2023-02-15T22:31:04.626Z,-1.56
2023-02-15T22:46:01.449Z,-1.61
2023-02-15T23:00:03.366Z,-1.61
2023-02-15T23:16:00.756Z,-1.67
2023-02-15T23:31:03.295Z,-1.72
2023-02-15T23:46:00.354Z,-1.72
